Time;durP1;ratioP1;P1;durP2;ratioP2;P2;SDS_P1;SDS_P2;PMS_P1;PMS_P2;Temp;Humidity;BMP_temperature;BMP_pressure;BME280_temperature;BME280_humidity;BME280_pressure;Samples;Min_cycle;Max_cycle;Signal;HPM_P1;HPM_P2
2023/09/12 00:00:35;;;;;;;12.90;11.70;;;21.10;1.00;;;;;;5138156;27;20244;-38
2023/09/12 00:03:01;;;;;;;14.60;13.10;;;21.10;1.00;;;;;;5137536;28;20612;-45
2023/09/12 00:05:26;;;;;;;12.67;11.50;;;21.10;1.00;;;;;;5137162;28;20175;-38
2023/09/12 00:07:53;;;;;;;12.47;11.13;;;21.00;1.00;;;;;;5137783;28;20557;-41
2023/09/12 00:10:19;;;;;;;12.07;11.17;;;21.10;1.00;;;;;;5137506;28;20618;-41
2023/09/12 00:12:45;;;;;;;12.03;10.97;;;21.00;1.00;;;;;;5136598;28;20472;-39
2023/09/12 00:15:10;;;;;;;13.30;12.00;;;21.00;1.00;;;;;;5137546;28;20179;-42
2023/09/12 00:17:36;;;;;;;13.20;12.00;;;21.00;1.00;;;;;;5138563;27;20404;-39
2023/09/12 00:20:04;;;;;;;13.37;11.80;;;21.00;1.00;;;;;;5120631;27;20319;-38
2023/09/12 00:22:29;;;;;;;14.20;12.17;;;20.90;1.00;;;;;;5140063;27;20193;-37
2023/09/12 00:24:55;;;;;;;14.03;12.40;;;20.90;1.00;;;;;;5140250;27;20458;-38
2023/09/12 00:27:20;;;;;;;12.87;11.70;;;20.90;1.00;;;;;;5139817;27;20191;-38
2023/09/12 00:29:46;;;;;;;13.93;12.73;;;20.90;1.00;;;;;;5138979;27;20207;-38
2023/09/12 00:32:11;;;;;;;13.27;12.10;;;20.80;1.00;;;;;;5140612;27;20324;-38
2023/09/12 00:34:37;;;;;;;12.53;11.23;;;20.80;1.00;;;;;;5139565;27;20190;-38
2023/09/12 00:37:03;;;;;;;13.30;12.10;;;20.80;28.00;;;;;;5140441;27;20536;-36
2023/09/12 00:39:28;;;;;;;12.33;11.27;;;20.80;84.70;;;;;;5141219;27;20206;-37
2023/09/12 00:41:54;;;;;;;13.80;12.37;;;20.80;99.90;;;;;;5139439;27;20428;-42
2023/09/12 00:44:19;;;;;;;12.67;11.47;;;20.70;33.50;;;;;;5139323;27;20179;-37
2023/09/12 00:46:46;;;;;;;12.63;11.53;;;20.80;99.90;;;;;;5140916;27;20187;-39
2023/09/12 00:49:12;;;;;;;12.63;11.63;;;20.70;99.90;;;;;;5121944;27;20271;-38
2023/09/12 00:51:38;;;;;;;13.17;11.87;;;20.70;99.90;;;;;;5140718;27;20520;-37
2023/09/12 00:54:04;;;;;;;12.90;11.80;;;20.80;99.90;;;;;;5139259;27;20777;-39
2023/09/12 00:56:29;;;;;;;11.97;10.87;;;20.70;99.90;;;;;;5121468;27;20255;-39
2023/09/12 00:58:55;;;;;;;14.17;12.67;;;20.80;99.90;;;;;;5122902;27;20195;-40
2023/09/12 01:01:21;;;;;;;12.33;11.13;;;20.70;99.90;;;;;;5121408;27;20326;-40
2023/09/12 01:03:46;;;;;;;12.10;11.10;;;20.70;99.90;;;;;;5140137;27;20428;-38
2023/09/12 01:06:12;;;;;;;12.30;11.30;;;20.60;99.90;;;;;;5139632;27;20183;-39
2023/09/12 01:08:38;;;;;;;12.27;11.03;;;20.60;99.90;;;;;;5141139;27;20175;-38
2023/09/12 01:11:04;;;;;;;13.37;11.83;;;20.60;99.90;;;;;;5140604;27;20230;-39
2023/09/12 01:13:29;;;;;;;12.70;11.50;;;20.60;99.90;;;;;;5140403;27;20478;-39
2023/09/12 01:15:55;;;;;;;13.37;11.70;;;20.60;99.90;;;;;;5140129;27;20569;-37
2023/09/12 01:18:20;;;;;;;14.20;12.70;;;20.50;99.90;;;;;;5122174;27;20457;-44
2023/09/12 01:21:23;;;;;;;12.47;11.47;;;20.50;1.00;;;;;;5140769;27;20322;-40
2023/09/12 01:24:06;;;;;;;11.93;10.80;;;20.40;1.00;;;;;;5140266;27;20493;-42
2023/09/12 01:26:42;;;;;;;12.30;11.20;;;20.40;1.00;;;;;;5139977;27;20412;-40
2023/09/12 01:29:08;;;;;;;13.43;12.23;;;20.40;1.00;;;;;;5138594;27;20405;-38
2023/09/12 01:31:34;;;;;;;13.33;12.13;;;20.40;1.00;;;;;;5121126;27;20755;-38
2023/09/12 01:34:10;;;;;;;12.23;11.17;;;20.40;1.00;;;;;;5139903;27;20432;-39
2023/09/12 01:36:35;;;;;;;11.63;10.53;;;20.40;1.00;;;;;;5140030;27;20424;-39
2023/09/12 01:39:01;;;;;;;13.57;12.27;;;20.40;1.00;;;;;;5140092;27;20802;-39
2023/09/12 01:41:27;;;;;;;13.17;11.10;;;20.40;1.00;;;;;;5140227;27;20209;-40
2023/09/12 01:43:54;;;;;;;12.17;11.00;;;20.40;1.00;;;;;;5104390;27;20237;-39
2023/09/12 01:46:21;;;;;;;13.20;11.90;;;20.40;1.00;;;;;;5121671;27;20492;-39
2023/09/12 01:48:50;;;;;;;12.90;11.77;;;20.40;1.00;;;;;;5121992;27;20489;-38
2023/09/12 01:51:17;;;;;;;12.93;11.63;;;20.40;1.00;;;;;;5139644;27;20472;-38
2023/09/12 01:53:43;;;;;;;13.70;12.53;;;20.40;1.00;;;;;;5121290;27;20652;-39
2023/09/12 01:56:09;;;;;;;12.27;11.07;;;20.40;1.00;;;;;;5139330;27;20419;-39
2023/09/12 01:58:35;;;;;;;13.43;12.13;;;20.40;1.00;;;;;;5120900;27;20699;-39
2023/09/12 02:01:01;;;;;;;11.93;10.93;;;20.40;1.00;;;;;;5138652;27;20291;-36
2023/09/12 02:03:26;;;;;;;13.50;12.30;;;20.40;1.00;;;;;;5121395;27;20471;-39
2023/09/12 02:05:52;;;;;;;12.57;11.40;;;20.40;1.00;;;;;;5138302;27;20179;-41
2023/09/12 02:08:17;;;;;;;12.63;11.50;;;20.30;1.00;;;;;;5139292;27;20175;-42
2023/09/12 02:10:43;;;;;;;12.43;11.33;;;20.30;1.00;;;;;;5138706;27;20219;-40
2023/09/12 02:13:09;;;;;;;13.10;11.10;;;20.20;67.80;;;;;;5137944;27;20211;-40
2023/09/12 02:15:34;;;;;;;12.63;11.43;;;20.30;88.70;;;;;;5138934;27;20187;-40
2023/09/12 02:18:00;;;;;;;12.30;11.30;;;20.20;93.30;;;;;;5138958;27;20664;-38
2023/09/12 02:20:25;;;;;;;12.27;11.10;;;20.20;99.90;;;;;;5138749;27;20175;-40
2023/09/12 02:22:51;;;;;;;12.23;10.93;;;20.20;99.90;;;;;;5139807;27;20191;-38
2023/09/12 02:25:17;;;;;;;13.43;12.13;;;20.20;99.90;;;;;;5139821;27;20187;-39
2023/09/12 02:27:42;;;;;;;12.30;11.20;;;20.20;24.00;;;;;;5139597;27;20266;-39
2023/09/12 02:30:09;;;;;;;12.77;11.47;;;20.20;99.90;;;;;;5104171;27;20283;-40
2023/09/12 02:32:34;;;;;;;13.07;11.87;;;20.20;99.90;;;;;;5103487;27;20202;-40
2023/09/12 02:35:00;;;;;;;12.57;11.43;;;20.20;75.00;;;;;;5103612;27;20757;-38
2023/09/12 02:37:25;;;;;;;12.27;11.10;;;20.20;99.90;;;;;;5138905;27;20212;-42
2023/09/12 02:39:51;;;;;;;11.53;10.43;;;20.20;98.90;;;;;;5120073;27;20577;-41
2023/09/12 02:42:16;;;;;;;11.20;10.20;;;20.20;77.40;;;;;;5120581;27;20251;-40
2023/09/12 02:44:42;;;;;;;12.87;11.63;;;20.20;43.80;;;;;;5138758;27;20179;-41
2023/09/12 02:47:08;;;;;;;13.77;12.57;;;20.20;85.30;;;;;;5138774;27;20243;-38
2023/09/12 02:52:55;;;;;;;12.57;11.27;;;20.20;1.00;;;;;;5136235;27;20492;-41
2023/09/12 02:55:21;;;;;;;11.10;10.03;;;20.10;1.00;;;;;;5138522;27;20409;-39
2023/09/12 02:57:46;;;;;;;12.17;11.07;;;19.90;55.70;;;;;;5137854;27;20183;-37
2023/09/12 03:00:13;;;;;;;12.13;11.13;;;19.90;99.90;;;;;;5138123;27;20198;-42
2023/09/12 03:02:39;;;;;;;13.50;12.30;;;19.80;99.90;;;;;;5137881;27;20209;-42
2023/09/12 03:05:05;;;;;;;12.40;11.17;;;19.80;99.90;;;;;;5137958;27;20433;-38
2023/09/12 03:07:30;;;;;;;12.37;11.00;;;19.80;1.00;;;;;;5119998;27;20206;-40
2023/09/12 03:09:56;;;;;;;12.20;11.00;;;19.80;99.90;;;;;;5138040;27;20475;-39
2023/09/12 03:12:22;;;;;;;12.60;11.60;;;19.80;1.00;;;;;;5137862;27;20186;-38
2023/09/12 03:14:47;;;;;;;13.33;11.93;;;19.80;1.00;;;;;;5137709;27;20178;-40
2023/09/12 03:17:13;;;;;;;13.23;11.97;;;19.80;1.00;;;;;;5137733;27;20185;-38
2023/09/12 03:19:39;;;;;;;13.20;11.83;;;19.90;1.00;;;;;;5137991;27;20277;-40
2023/09/12 03:22:04;;;;;;;14.00;12.67;;;19.90;99.90;;;;;;5138027;27;20477;-39
2023/09/12 03:24:31;;;;;;;12.50;11.17;;;19.90;99.90;;;;;;5137092;27;20576;-39
2023/09/12 03:26:56;;;;;;;14.67;11.23;;;19.80;99.90;;;;;;5138102;27;20194;-38
2023/09/12 03:29:23;;;;;;;12.57;11.40;;;19.80;99.90;;;;;;5138273;27;20836;-38
2023/09/12 03:31:48;;;;;;;13.00;11.80;;;19.80;1.00;;;;;;5137710;27;20172;-38
2023/09/12 03:34:14;;;;;;;12.07;10.83;;;19.90;99.90;;;;;;5117545;27;20468;-37
2023/09/12 03:36:40;;;;;;;11.03;10.03;;;19.90;99.90;;;;;;5136538;27;20175;-36
2023/09/12 03:39:08;;;;;;;12.40;11.10;;;19.90;99.90;;;;;;5135675;27;20190;-38
2023/09/12 03:41:34;;;;;;;11.97;10.87;;;19.80;99.90;;;;;;5135978;27;20548;-38
2023/09/12 03:44:00;;;;;;;13.10;11.90;;;19.80;99.90;;;;;;5133929;27;20444;-38
2023/09/12 03:46:26;;;;;;;13.33;12.03;;;19.80;1.00;;;;;;5133550;27;20864;-43
2023/09/12 03:48:51;;;;;;;11.60;10.63;;;19.80;1.00;;;;;;5134602;27;20183;-38
2023/09/12 03:51:17;;;;;;;13.03;11.73;;;19.90;99.90;;;;;;5136876;27;20591;-44
2023/09/12 03:53:43;;;;;;;14.33;11.47;;;19.90;99.90;;;;;;5137225;27;20249;-41
2023/09/12 03:56:12;;;;;;;12.80;10.90;;;20.00;99.90;;;;;;5119348;28;20255;-40
2023/09/12 03:58:38;;;;;;;14.10;12.33;;;20.00;99.90;;;;;;5136243;27;20683;-40
2023/09/12 04:01:04;;;;;;;14.57;12.30;;;20.10;99.90;;;;;;5134235;27;20405;-41
2023/09/12 04:03:30;;;;;;;12.63;11.40;;;20.10;99.90;;;;;;5134810;28;20443;-40
2023/09/12 04:05:55;;;;;;;12.93;11.73;;;20.20;64.20;;;;;;5135852;28;20240;-40
2023/09/12 04:08:21;;;;;;;12.53;11.47;;;20.20;1.00;;;;;;5118129;28;20480;-41
2023/09/12 04:10:47;;;;;;;11.97;10.77;;;20.30;1.00;;;;;;5135937;28;20448;-40
2023/09/12 04:13:13;;;;;;;11.57;10.67;;;20.30;1.00;;;;;;5135258;28;20481;-42
2023/09/12 04:15:38;;;;;;;12.70;11.40;;;20.40;99.90;;;;;;5136237;28;20183;-40
2023/09/12 04:18:05;;;;;;;13.70;12.27;;;20.40;99.90;;;;;;5135404;28;20266;-42
2023/09/12 04:20:30;;;;;;;11.97;10.97;;;20.40;99.90;;;;;;5117405;28;20472;-41
2023/09/12 04:22:56;;;;;;;14.07;12.73;;;20.40;99.90;;;;;;5135169;28;20424;-41
2023/09/12 04:25:21;;;;;;;12.37;11.23;;;20.40;99.90;;;;;;5135012;28;20181;-43
2023/09/12 04:27:47;;;;;;;13.03;11.67;;;20.40;99.90;;;;;;5133608;28;20231;-44
2023/09/12 04:30:13;;;;;;;12.53;11.53;;;20.40;99.90;;;;;;5132686;28;20623;-43
2023/09/12 04:32:39;;;;;;;12.57;11.43;;;20.40;99.90;;;;;;5134011;28;20209;-41
2023/09/12 04:35:05;;;;;;;12.03;11.03;;;20.40;99.90;;;;;;5134883;28;20440;-40
2023/09/12 04:37:30;;;;;;;13.93;12.73;;;20.40;99.90;;;;;;5134421;28;20179;-41
2023/09/12 04:39:57;;;;;;;13.23;11.93;;;20.40;99.90;;;;;;5134585;28;20911;-41
2023/09/12 04:42:22;;;;;;;13.40;12.23;;;20.40;99.90;;;;;;5134455;28;20190;-40
2023/09/12 04:44:48;;;;;;;12.30;11.30;;;20.40;99.90;;;;;;5132930;28;20495;-41
2023/09/12 04:47:14;;;;;;;13.63;12.33;;;20.40;99.90;;;;;;5133187;28;20650;-40
2023/09/12 04:49:40;;;;;;;12.57;11.47;;;20.40;99.90;;;;;;5133060;28;20599;-40
2023/09/12 04:52:06;;;;;;;12.50;11.37;;;20.40;99.90;;;;;;5134650;28;20242;-43
2023/09/12 04:54:32;;;;;;;12.80;11.70;;;20.40;99.90;;;;;;5133385;28;20575;-40
2023/09/12 04:56:57;;;;;;;14.20;12.83;;;20.50;99.90;;;;;;5133708;28;20520;-41
2023/09/12 04:59:23;;;;;;;14.30;13.00;;;20.50;21.50;;;;;;5132917;28;20270;-42
2023/09/12 05:01:49;;;;;;;14.13;12.73;;;20.50;29.20;;;;;;5133662;28;20183;-49
2023/09/12 05:04:15;;;;;;;14.40;12.67;;;20.50;1.00;;;;;;5137450;27;20462;-43
2023/09/12 05:06:40;;;;;;;13.30;11.93;;;20.50;1.00;;;;;;5137106;27;20191;-42
2023/09/12 05:09:08;;;;;;;15.27;13.83;;;20.50;1.00;;;;;;5135687;27;20755;-43
2023/09/12 05:11:34;;;;;;;13.57;12.43;;;20.60;1.00;;;;;;5135490;27;20183;-42
2023/09/12 05:14:03;;;;;;;15.00;13.60;;;20.60;1.00;;;;;;5137263;27;20427;-41
2023/09/12 05:16:29;;;;;;;14.33;13.13;;;20.60;1.00;;;;;;5135163;27;20512;-42
2023/09/12 05:18:54;;;;;;;14.10;12.90;;;20.70;99.90;;;;;;5134509;27;20428;-40
2023/09/12 05:21:20;;;;;;;14.97;13.67;;;20.70;99.90;;;;;;5116296;27;20439;-42
2023/09/12 05:23:46;;;;;;;14.83;13.33;;;20.70;99.90;;;;;;5135879;27;20663;-43
2023/09/12 05:26:12;;;;;;;13.40;12.40;;;20.70;99.90;;;;;;5135584;27;20183;-39
2023/09/12 05:28:38;;;;;;;14.30;13.00;;;20.80;99.90;;;;;;5132074;27;20330;-40
2023/09/12 05:31:03;;;;;;;14.43;13.10;;;20.80;99.90;;;;;;5116542;27;20472;-42
2023/09/12 05:33:29;;;;;;;14.23;13.13;;;20.90;48.20;;;;;;5137349;27;20179;-40
2023/09/12 05:35:55;;;;;;;12.83;11.73;;;20.90;1.00;;;;;;5117190;27;20225;-42
2023/09/12 05:38:20;;;;;;;13.40;12.13;;;21.00;1.00;;;;;;5115987;27;20217;-38
2023/09/12 05:40:49;;;;;;;14.90;13.60;;;21.10;1.00;;;;;;5117258;27;20426;-39
2023/09/12 05:43:16;;;;;;;14.50;13.13;;;21.20;1.00;;;;;;5133625;27;20556;-43
2023/09/12 05:45:42;;;;;;;14.77;13.67;;;21.30;99.90;;;;;;5132904;27;20580;-42
2023/09/12 05:48:09;;;;;;;14.53;13.23;;;21.40;99.90;;;;;;5132794;27;20789;-41
2023/09/12 05:50:36;;;;;;;14.10;12.83;;;21.40;99.90;;;;;;5132786;27;20567;-42
2023/09/12 05:53:02;;;;;;;14.33;13.03;;;21.60;99.90;;;;;;5117040;27;20465;-41
2023/09/12 05:55:28;;;;;;;14.00;12.90;;;21.60;97.50;;;;;;5135944;27;20825;-40
2023/09/12 05:57:55;;;;;;;13.63;12.43;;;21.70;22.40;;;;;;5134974;27;20425;-41
2023/09/12 06:00:21;;;;;;;13.47;12.30;;;21.80;1.00;;;;;;5116736;27;20421;-39
2023/09/12 06:02:48;;;;;;;15.20;13.93;;;21.80;1.00;;;;;;5133949;27;21003;-42
2023/09/12 06:05:15;;;;;;;14.90;13.60;;;21.90;1.00;;;;;;5135437;27;20450;-41
2023/09/12 06:07:41;;;;;;;14.60;13.20;;;21.90;1.00;;;;;;5134475;27;20732;-41
2023/09/12 06:10:07;;;;;;;14.00;12.90;;;22.00;1.00;;;;;;5137793;27;20460;-37
2023/09/12 06:12:35;;;;;;;15.47;13.93;;;22.00;1.00;;;;;;5125831;27;20335;-37
2023/09/12 06:15:04;;;;;;;15.33;13.90;;;22.10;1.00;;;;;;5131221;27;20431;-37
2023/09/12 06:17:30;;;;;;;15.77;14.50;;;22.10;1.00;;;;;;5135957;27;20493;-36
2023/09/12 06:19:56;;;;;;;14.60;13.40;;;22.10;1.00;;;;;;5137606;27;20428;-38
2023/09/12 06:22:25;;;;;;;14.57;13.17;;;22.20;1.00;;;;;;5137653;27;20486;-39
2023/09/12 06:24:51;;;;;;;14.40;12.87;;;22.20;1.00;;;;;;5136267;27;20203;-38
2023/09/12 06:27:18;;;;;;;13.50;11.83;;;22.30;1.00;;;;;;5134772;27;20501;-39
2023/09/12 06:29:48;;;;;;;14.30;12.80;;;22.40;99.90;;;;;;5134247;27;20480;-36
2023/09/12 06:32:17;;;;;;;14.10;12.77;;;22.50;99.90;;;;;;5135175;27;20417;-37
2023/09/12 06:34:43;;;;;;;14.40;13.20;;;22.50;99.90;;;;;;5136049;27;20686;-37
2023/09/12 06:37:09;;;;;;;13.80;12.70;;;22.50;99.90;;;;;;5134993;27;20416;-36
2023/09/12 06:39:34;;;;;;;13.90;12.60;;;22.50;99.90;;;;;;5135151;27;20190;-38
2023/09/12 06:42:00;;;;;;;14.37;13.07;;;22.50;99.90;;;;;;5136720;27;20432;-36
2023/09/12 06:44:26;;;;;;;14.40;13.20;;;22.60;99.90;;;;;;5119275;27;20236;-38
2023/09/12 06:46:51;;;;;;;13.93;12.63;;;22.60;94.40;;;;;;5136108;27;20194;-37
2023/09/12 06:49:17;;;;;;;14.93;13.50;;;22.60;84.10;;;;;;5135477;27;20187;-38
2023/09/12 06:51:43;;;;;;;14.07;12.83;;;22.60;77.10;;;;;;5134520;27;20191;-38
2023/09/12 06:54:08;;;;;;;13.80;12.60;;;22.60;52.90;;;;;;5134206;27;20219;-38
2023/09/12 06:56:37;;;;;;;15.00;13.60;;;22.70;52.20;;;;;;5132430;27;20187;-37
2023/09/12 06:59:06;;;;;;;15.23;13.80;;;22.70;19.80;;;;;;5132162;27;20205;-46
2023/09/12 07:01:32;;;;;;;13.90;12.63;;;22.70;1.00;;;;;;5132816;27;20424;-38
2023/09/12 07:03:57;;;;;;;14.30;13.13;;;22.70;1.00;;;;;;5134307;27;20412;-36
2023/09/12 07:06:23;;;;;;;16.03;14.33;;;22.70;1.00;;;;;;5135969;27;20657;-36
2023/09/12 07:08:49;;;;;;;16.00;14.70;;;22.80;1.00;;;;;;5137023;27;20183;-38
2023/09/12 07:11:15;;;;;;;14.63;13.43;;;22.90;1.00;;;;;;5135415;27;20556;-37
2023/09/12 07:13:41;;;;;;;14.40;13.13;;;23.10;1.00;;;;;;5135196;27;20436;-37
2023/09/12 07:16:06;;;;;;;14.97;13.70;;;23.40;1.00;;;;;;5116602;27;20232;-37
2023/09/12 07:18:32;;;;;;;14.33;13.13;;;23.70;1.00;;;;;;5136403;27;20187;-38
2023/09/12 07:21:03;;;;;;;14.40;13.10;;;24.00;1.00;;;;;;5136290;27;20190;-37
2023/09/12 07:23:29;;;;;;;15.70;14.20;;;24.30;99.90;;;;;;5106729;27;20200;-38
2023/09/12 07:25:57;;;;;;;15.03;13.93;;;24.60;99.90;;;;;;5153731;27;20753;-39
2023/09/12 07:28:24;;;;;;;13.93;12.87;;;24.90;99.90;;;;;;5135294;27;20661;-37
2023/09/12 07:30:49;;;;;;;14.97;13.67;;;25.10;99.90;;;;;;5131537;27;20529;-36
2023/09/12 07:33:15;;;;;;;14.30;13.10;;;25.40;99.90;;;;;;5132292;27;20429;-38
2023/09/12 07:35:41;;;;;;;15.37;14.10;;;25.60;99.90;;;;;;5133005;27;20270;-38
2023/09/12 07:38:07;;;;;;;16.27;14.77;;;25.70;53.60;;;;;;5134673;27;20187;-38
2023/09/12 07:40:32;;;;;;;14.93;13.57;;;25.70;37.60;;;;;;5124069;27;20266;-40
2023/09/12 07:42:58;;;;;;;14.37;13.17;;;25.70;29.80;;;;;;5135022;27;20263;-37
2023/09/12 07:45:24;;;;;;;13.30;12.30;;;25.60;26.90;;;;;;5135681;27;20191;-38
2023/09/12 07:47:50;;;;;;;14.53;13.43;;;25.60;25.60;;;;;;5134456;27;20614;-39
2023/09/12 07:50:15;;;;;;;15.87;14.60;;;25.60;20.00;;;;;;5135073;27;20305;-42
2023/09/12 07:52:41;;;;;;;13.43;12.33;;;25.50;20.00;;;;;;5119568;28;20670;-39
2023/09/12 07:55:07;;;;;;;16.50;15.10;;;25.50;22.50;;;;;;5135130;27;20827;-37
2023/09/12 07:57:34;;;;;;;14.13;13.03;;;25.50;23.60;;;;;;5133655;27;20210;-36
2023/09/12 08:00:00;;;;;;;16.47;14.87;;;25.40;26.50;;;;;;5115866;27;20459;-37
2023/09/12 08:02:26;;;;;;;13.60;12.40;;;25.40;40.20;;;;;;5136892;27;20856;-37
2023/09/12 08:04:53;;;;;;;14.33;13.10;;;25.40;57.70;;;;;;5117719;28;20513;-36
2023/09/12 08:07:19;;;;;;;15.27;13.87;;;25.40;45.30;;;;;;5117074;28;20187;-40
2023/09/12 08:09:50;;;;;;;15.10;13.90;;;25.40;46.00;;;;;;5134629;28;20681;-37
2023/09/12 08:12:17;;;;;;;15.70;14.30;;;25.40;45.10;;;;;;5134991;28;20766;-36
2023/09/12 08:14:42;;;;;;;13.60;12.60;;;25.30;38.40;;;;;;5133736;28;20489;-40
2023/09/12 08:17:09;;;;;;;14.60;13.40;;;25.10;45.60;;;;;;5133279;28;20431;-37
2023/09/12 08:19:34;;;;;;;15.40;14.13;;;25.20;50.90;;;;;;5132976;28;20525;-39
2023/09/12 08:22:00;;;;;;;14.40;13.20;;;25.20;56.80;;;;;;5115714;28;20436;-36
2023/09/12 08:24:26;;;;;;;14.87;13.57;;;25.40;44.30;;;;;;5133474;28;20218;-37
2023/09/12 08:26:51;;;;;;;14.00;12.93;;;25.60;42.40;;;;;;5135391;28;20543;-37
2023/09/12 08:29:17;;;;;;;13.90;12.90;;;26.20;25.90;;;;;;5135625;28;20587;-37
2023/09/12 08:31:44;;;;;;;14.17;13.00;;;26.80;4.70;;;;;;5136482;28;20183;-41
2023/09/12 08:34:10;;;;;;;14.40;13.17;;;27.40;1.00;;;;;;5133952;28;20244;-38
2023/09/12 08:36:36;;;;;;;14.10;12.90;;;27.90;1.00;;;;;;5134583;28;20460;-39
2023/09/12 08:39:01;;;;;;;14.50;13.33;;;28.40;1.00;;;;;;5137118;27;20179;-37
2023/09/12 08:41:27;;;;;;;14.17;12.97;;;28.90;1.00;;;;;;5139212;27;20686;-36
2023/09/12 08:43:54;;;;;;;14.30;13.30;;;29.20;1.00;;;;;;5136605;27;20191;-37
2023/09/12 08:46:20;;;;;;;14.27;13.07;;;29.40;1.00;;;;;;5135925;27;20355;-36
2023/09/12 08:48:46;;;;;;;14.07;12.57;;;29.60;1.00;;;;;;5120101;27;20425;-37
2023/09/12 08:51:12;;;;;;;13.50;12.43;;;29.70;1.00;;;;;;5120761;27;20486;-37
2023/09/12 08:53:38;;;;;;;13.80;12.70;;;29.90;1.00;;;;;;5121401;27;20574;-37
2023/09/12 08:56:04;;;;;;;14.20;13.00;;;30.20;1.00;;;;;;5120716;27;20780;-37
2023/09/12 08:58:32;;;;;;;14.30;13.00;;;30.40;1.00;;;;;;5138814;27;20194;-42
2023/09/12 09:01:00;;;;;;;15.63;14.40;;;30.50;1.00;;;;;;5138930;27;20439;-38
2023/09/12 09:03:26;;;;;;;14.00;13.00;;;30.70;1.00;;;;;;5120415;27;20470;-38
2023/09/12 09:05:52;;;;;;;14.37;13.20;;;30.80;1.00;;;;;;5138234;27;20424;-40
2023/09/12 09:08:19;;;;;;;14.53;12.87;;;31.00;1.00;;;;;;5121231;27;20429;-39
2023/09/12 09:10:59;;;;;;;14.73;13.40;;;31.40;1.00;;;;;;5122709;27;20796;-37
2023/09/12 09:13:25;;;;;;;14.17;12.93;;;31.70;1.00;;;;;;5140843;27;20409;-39
2023/09/12 09:16:16;;;;;;;14.63;13.20;;;31.80;1.00;;;;;;5139665;27;20780;-37
2023/09/12 09:19:01;;;;;;;13.87;12.60;;;32.10;1.00;;;;;;5138127;27;20452;-37
2023/09/12 09:21:31;;;;;;;12.07;11.17;;;32.50;1.00;;;;;;5137721;27;20676;-37
2023/09/12 09:24:17;;;;;;;12.90;11.80;;;33.00;1.00;;;;;;5116991;27;20825;-38
2023/09/12 09:26:48;;;;;;;11.40;10.50;;;33.50;1.00;;;;;;5136282;27;20505;-38
2023/09/12 09:29:19;;;;;;;12.70;11.60;;;33.90;1.00;;;;;;5136513;27;20426;-37
2023/09/12 09:31:50;;;;;;;13.33;12.30;;;34.30;1.00;;;;;;5136871;27;20474;-38
2023/09/12 09:34:21;;;;;;;12.63;11.60;;;34.40;1.00;;;;;;5137501;27;20405;-37
2023/09/12 09:36:48;;;;;;;12.70;11.70;;;34.60;1.00;;;;;;5136729;27;20387;-38
2023/09/12 09:39:16;;;;;;;11.53;10.63;;;35.10;1.00;;;;;;5136147;27;20414;-37
2023/09/12 09:41:42;;;;;;;13.33;12.13;;;35.20;1.00;;;;;;5119542;27;20918;-39
2023/09/12 09:44:08;;;;;;;13.03;12.07;;;35.30;1.00;;;;;;5134314;27;20495;-38
2023/09/12 09:46:38;;;;;;;11.60;10.70;;;35.30;1.00;;;;;;5117950;27;20476;-37
2023/09/12 09:49:06;;;;;;;12.87;11.37;;;35.60;1.00;;;;;;5137605;27;20412;-41
2023/09/12 09:51:31;;;;;;;12.30;11.20;;;35.70;1.00;;;;;;5138283;27;20781;-37
2023/09/12 09:53:58;;;;;;;12.30;11.30;;;35.60;1.00;;;;;;5137389;27;20684;-38
2023/09/12 09:56:25;;;;;;;12.73;11.83;;;35.10;1.00;;;;;;5137691;27;20183;-40
2023/09/12 09:58:51;;;;;;;14.20;13.00;;;34.90;1.00;;;;;;5136522;27;20379;-38
2023/09/12 10:01:35;;;;;;;13.20;12.00;;;35.10;1.00;;;;;;5135574;27;20390;-38
2023/09/12 10:04:02;;;;;;;12.57;11.47;;;35.30;1.00;;;;;;5135375;27;20637;-39
2023/09/12 10:06:28;;;;;;;11.90;11.00;;;35.20;1.00;;;;;;5135958;27;20528;-38
2023/09/12 10:08:55;;;;;;;12.50;11.60;;;35.40;1.00;;;;;;5117399;27;20467;-38
2023/09/12 10:11:23;;;;;;;13.07;12.07;;;35.80;1.00;;;;;;5135336;27;20495;-38
2023/09/12 10:14:00;;;;;;;12.90;11.90;;;36.20;1.00;;;;;;5136969;27;20523;-39
2023/09/12 10:16:33;;;;;;;13.10;12.00;;;36.10;1.00;;;;;;5118721;27;20483;-39
2023/09/12 10:19:01;;;;;;;13.40;12.30;;;36.30;1.00;;;;;;5137650;27;20798;-39
2023/09/12 10:21:33;;;;;;;13.13;11.93;;;36.50;1.00;;;;;;5135229;27;20399;-37
2023/09/12 10:24:00;;;;;;;12.57;11.40;;;36.60;1.00;;;;;;5133881;27;20442;-39
2023/09/12 10:26:26;;;;;;;12.10;11.10;;;36.20;1.00;;;;;;5133763;27;20452;-40
2023/09/12 10:28:53;;;;;;;12.27;11.20;;;35.90;1.00;;;;;;5132663;27;20409;-38
2023/09/12 10:31:19;;;;;;;13.50;12.20;;;35.80;1.00;;;;;;5135575;27;20550;-40
2023/09/12 10:33:46;;;;;;;12.63;11.50;;;35.50;1.00;;;;;;5115553;27;20670;-37
2023/09/12 10:36:12;;;;;;;12.70;11.73;;;35.30;1.00;;;;;;5116501;27;20536;-38
2023/09/12 10:38:44;;;;;;;11.07;10.20;;;35.90;1.00;;;;;;5135232;27;20752;-39
2023/09/12 10:41:13;;;;;;;11.03;10.03;;;36.10;1.00;;;;;;5116145;27;20809;-38
2023/09/12 10:43:41;;;;;;;13.40;12.30;;;36.10;1.00;;;;;;5135274;27;20375;-39
2023/09/12 10:46:08;;;;;;;11.60;10.50;;;36.00;1.00;;;;;;5134940;27;20576;-39
2023/09/12 10:48:36;;;;;;;11.33;10.47;;;36.30;1.00;;;;;;5135188;27;20457;-39
2023/09/12 10:51:04;;;;;;;9.33;8.70;;;36.30;1.00;;;;;;5118564;27;20468;-38
2023/09/12 10:53:31;;;;;;;9.50;8.70;;;36.30;1.00;;;;;;5135861;27;20449;-38
2023/09/12 10:56:01;;;;;;;17.40;9.70;;;36.30;1.00;;;;;;5132749;27;20436;-38
2023/09/12 10:58:29;;;;;;;9.27;8.40;;;36.50;1.00;;;;;;5135973;27;20456;-39
2023/09/12 11:01:30;;;;;;;9.10;8.30;;;37.00;1.00;;;;;;5116407;27;20953;-39
2023/09/12 11:03:57;;;;;;;8.83;8.13;;;37.40;1.00;;;;;;5118354;27;20403;-37
2023/09/12 11:06:31;;;;;;;9.73;8.77;;;37.40;1.00;;;;;;5134651;27;20395;-38
2023/09/12 11:09:19;;;;;;;12.10;9.23;;;37.90;1.00;;;;;;5135161;27;20641;-38
2023/09/12 11:12:04;;;;;;;10.17;9.10;;;38.20;1.00;;;;;;5116073;27;20447;-40
2023/09/12 11:14:31;;;;;;;9.67;8.87;;;38.80;1.00;;;;;;5133655;27;20412;-39
2023/09/12 11:17:07;;;;;;;10.00;9.27;;;38.90;1.00;;;;;;5133758;27;20519;-38
2023/09/12 11:19:49;;;;;;;10.60;9.80;;;38.50;1.00;;;;;;5133577;27;20681;-38
2023/09/12 11:22:31;;;;;;;10.50;9.80;;;38.00;1.00;;;;;;5134100;27;20384;-38
2023/09/12 11:24:58;;;;;;;10.87;9.97;;;37.20;1.00;;;;;;5134562;27;20383;-39
2023/09/12 11:27:53;;;;;;;10.20;9.40;;;37.30;1.00;;;;;;5113972;27;20399;-38
2023/09/12 11:30:22;;;;;;;11.37;10.47;;;37.60;1.00;;;;;;5134225;27;20808;-38
2023/09/12 11:32:50;;;;;;;10.00;9.17;;;37.90;1.00;;;;;;5136614;27;20743;-40
2023/09/12 11:35:16;;;;;;;11.07;10.07;;;38.70;1.00;;;;;;5136418;27;20427;-38
2023/09/12 11:37:59;;;;;;;10.90;9.77;;;39.50;1.00;;;;;;5135637;27;20473;-38
2023/09/12 11:40:42;;;;;;;11.00;10.20;;;40.40;1.00;;;;;;5134476;27;20801;-39
2023/09/12 11:43:23;;;;;;;10.33;9.53;;;41.00;1.00;;;;;;5133867;27;20868;-38
2023/09/12 11:45:49;;;;;;;10.30;9.50;;;41.40;1.00;;;;;;5133759;27;20432;-38
2023/09/12 11:48:15;;;;;;;10.40;9.70;;;41.70;1.00;;;;;;5112734;27;21089;-41
2023/09/12 11:50:42;;;;;;;9.97;9.07;;;41.60;1.00;;;;;;5133636;27;20520;-39
2023/09/12 11:53:12;;;;;;;10.70;10.00;;;41.20;1.00;;;;;;5130028;27;20223;-40
2023/09/12 11:55:44;;;;;;;9.37;8.57;;;40.90;1.00;;;;;;5114402;28;20429;-40
2023/09/12 11:58:19;;;;;;;10.23;9.40;;;40.30;1.00;;;;;;5096099;28;20771;-38
2023/09/12 12:00:47;;;;;;;10.17;9.47;;;39.70;1.00;;;;;;5115565;28;20853;-39
2023/09/12 12:03:14;;;;;;;9.43;8.70;;;39.90;1.00;;;;;;5116014;28;20497;-38
2023/09/12 12:05:40;;;;;;;9.67;8.97;;;40.20;1.00;;;;;;5114085;28;20814;-38
2023/09/12 12:08:08;;;;;;;9.43;8.60;;;40.60;1.00;;;;;;5115473;28;20697;-39
2023/09/12 12:10:34;;;;;;;9.70;8.80;;;41.10;1.00;;;;;;5097063;28;20586;-38
2023/09/12 12:13:00;;;;;;;10.47;9.57;;;41.40;1.00;;;;;;5115518;28;20503;-39
2023/09/12 12:15:27;;;;;;;10.50;9.50;;;41.30;1.00;;;;;;5119462;28;20438;-40
2023/09/12 12:17:57;;;;;;;9.13;8.43;;;41.20;1.00;;;;;;5102434;28;20179;-39
2023/09/12 12:20:23;;;;;;;9.43;8.63;;;41.10;1.00;;;;;;5119403;28;20425;-39
2023/09/12 12:22:51;;;;;;;8.93;8.23;;;41.30;1.00;;;;;;5117556;28;20476;-39
2023/09/12 12:25:17;;;;;;;9.10;8.27;;;41.20;1.00;;;;;;5117975;28;20436;-38
2023/09/12 12:27:43;;;;;;;9.40;8.80;;;40.80;1.00;;;;;;5118489;28;20437;-38
2023/09/12 12:30:11;;;;;;;9.67;8.97;;;40.30;1.00;;;;;;5101605;28;20470;-39
2023/09/12 12:32:47;;;;;;;9.27;8.67;;;40.00;1.00;;;;;;5118250;28;20176;-40
2023/09/12 12:35:20;;;;;;;11.27;10.37;;;39.40;1.00;;;;;;5101462;28;20481;-38
2023/09/12 12:37:49;;;;;;;10.10;9.40;;;39.80;1.00;;;;;;5118975;28;20425;-40
2023/09/12 12:40:15;;;;;;;10.60;9.83;;;39.80;1.00;;;;;;5118640;28;20416;-38